Time;durP1;ratioP1;P1;durP2;ratioP2;P2;SDS_P1;SDS_P2;PMS_P1;PMS_P2;Temp;Humidity;BMP_temperature;BMP_pressure;BME280_temperature;BME280_humidity;BME280_pressure;Samples;Min_cycle;Max_cycle;Signal;HPM_P1;HPM_P2
2023/11/06 00:00:19;;;;;;;1.30;0.90;;;;;;;11.38;100.00;96867.58;109785;1250;59805;-70
2023/11/06 00:03:06;;;;;;;1.00;0.70;;;;;;;11.39;100.00;96870.76;109841;1251;59818;-69
2023/11/06 00:05:32;;;;;;;0.60;0.60;;;;;;;11.41;100.00;96877.16;109881;1249;67420;-70
2023/11/06 00:07:58;;;;;;;0.90;0.70;;;;;;;11.41;100.00;96873.72;109540;1250;59957;-70
2023/11/06 00:10:25;;;;;;;0.70;0.70;;;;;;;11.43;100.00;96874.60;109477;1250;63878;-68
2023/11/06 00:12:52;;;;;;;3.30;0.80;;;;;;;11.46;100.00;96875.85;109790;1250;60190;-69
2023/11/06 00:15:20;;;;;;;0.80;0.60;;;;;;;11.49;100.00;96878.66;109841;1250;59996;-69
2023/11/06 00:17:47;;;;;;;0.70;0.60;;;;;;;11.54;100.00;96890.21;109877;1251;67479;-69
2023/11/06 00:20:13;;;;;;;0.90;0.70;;;;;;;11.56;100.00;96899.23;109814;1250;60093;-69
2023/11/06 00:22:40;;;;;;;1.10;0.70;;;;;;;11.57;100.00;96903.24;109837;1249;65259;-69
2023/11/06 00:25:07;;;;;;;0.40;0.40;;;;;;;11.59;100.00;96903.05;109795;1250;60012;-69
2023/11/06 00:27:34;;;;;;;0.30;0.30;;;;;;;11.60;100.00;96901.80;109873;1250;59842;-69
2023/11/06 00:30:00;;;;;;;1.10;0.60;;;;;;;11.63;100.00;96910.30;109541;1251;66726;-69
2023/11/06 00:32:27;;;;;;;0.30;0.30;;;;;;;11.65;100.00;96913.97;109833;1251;60065;-69
2023/11/06 00:34:54;;;;;;;1.60;0.40;;;;;;;11.65;100.00;96915.90;109830;1250;60129;-70
2023/11/06 00:37:20;;;;;;;1.30;0.50;;;;;;;11.66;100.00;96921.33;109805;1249;60279;-70
2023/11/06 00:39:46;;;;;;;1.00;0.40;;;;;;;11.66;100.00;96927.57;109846;1250;60157;-69
2023/11/06 00:42:13;;;;;;;0.50;0.30;;;;;;;11.64;100.00;96934.08;109396;1251;59914;-69
2023/11/06 00:44:39;;;;;;;0.50;0.50;;;;;;;11.63;100.00;96938.34;109872;1250;59992;-69
2023/11/06 00:47:06;;;;;;;0.60;0.50;;;;;;;11.63;100.00;96938.00;109798;1250;59776;-69
2023/11/06 00:49:32;;;;;;;0.50;0.40;;;;;;;11.65;100.00;96942.78;109837;1250;60037;-69
2023/11/06 00:51:59;;;;;;;0.90;0.50;;;;;;;11.68;100.00;96948.68;109852;1250;59851;-69
2023/11/06 00:54:25;;;;;;;1.10;0.40;;;;;;;11.70;100.00;96949.19;109843;1250;60033;-70
2023/11/06 00:56:52;;;;;;;0.80;0.40;;;;;;;11.74;100.00;96954.88;109839;1251;59798;-69
2023/11/06 00:59:20;;;;;;;0.90;0.40;;;;;;;11.75;100.00;96960.28;109813;1249;59902;-70
2023/11/06 01:01:46;;;;;;;0.50;0.30;;;;;;;11.75;100.00;96968.95;109814;1250;59818;-70
2023/11/06 01:04:13;;;;;;;0.80;0.50;;;;;;;11.76;100.00;96973.16;109818;1249;59835;-70
2023/11/06 01:06:39;;;;;;;0.50;0.50;;;;;;;11.75;100.00;96975.69;109835;1250;60013;-70
2023/11/06 01:09:07;;;;;;;0.40;0.30;;;;;;;11.72;100.00;96982.41;109549;1251;59775;-70
2023/11/06 01:11:35;;;;;;;0.50;0.50;;;;;;;11.69;100.00;96981.89;109838;1250;64045;-70
2023/11/06 01:14:02;;;;;;;1.60;0.40;;;;;;;11.68;100.00;96979.80;109820;1249;59835;-69
2023/11/06 01:16:29;;;;;;;0.80;0.40;;;;;;;11.66;100.00;96983.05;109817;1250;59751;-69
2023/11/06 01:18:55;;;;;;;2.50;0.50;;;;;;;11.64;100.00;96992.67;109834;1250;66819;-69
2023/11/06 01:21:22;;;;;;;2.10;0.40;;;;;;;11.61;100.00;96996.40;109908;1250;59751;-70
2023/11/06 01:23:49;;;;;;;0.50;0.40;;;;;;;11.58;100.00;97004.02;109548;1251;65195;-70
2023/11/06 01:26:15;;;;;;;0.30;0.20;;;;;;;11.54;100.00;97010.06;109831;1251;59746;-70
2023/11/06 01:28:42;;;;;;;0.60;0.30;;;;;;;11.54;100.00;97007.95;109880;1250;59740;-70
2023/11/06 01:31:08;;;;;;;0.70;0.40;;;;;;;11.54;100.00;97009.77;109837;1250;60307;-71
2023/11/06 01:33:35;;;;;;;0.50;0.40;;;;;;;11.53;100.00;97015.59;109808;1251;59920;-69
2023/11/06 01:36:03;;;;;;;0.30;0.30;;;;;;;11.51;100.00;97023.08;109515;1251;63739;-69
2023/11/06 01:38:30;;;;;;;0.40;0.20;;;;;;;11.48;100.00;97024.53;109601;1251;59889;-69
2023/11/06 01:40:57;;;;;;;0.40;0.40;;;;;;;11.49;100.00;97037.14;109817;1250;59871;-69
2023/11/06 01:43:26;;;;;;;0.70;0.40;;;;;;;11.48;100.00;97047.34;109824;1250;59727;-69
2023/11/06 01:45:53;;;;;;;1.40;0.40;;;;;;;11.46;100.00;97052.86;109845;1248;61284;-69
2023/11/06 01:48:22;;;;;;;2.00;0.40;;;;;;;11.43;100.00;97062.20;109819;1250;62857;-69
2023/11/06 01:50:48;;;;;;;0.30;0.30;;;;;;;11.39;100.00;97067.02;109510;1251;60132;-69
2023/11/06 01:53:16;;;;;;;0.40;0.30;;;;;;;11.37;100.00;97074.39;109591;1249;59666;-69
2023/11/06 01:55:44;;;;;;;0.60;0.50;;;;;;;11.36;100.00;97079.98;109565;1251;66882;-69
2023/11/06 01:58:13;;;;;;;0.50;0.40;;;;;;;11.34;100.00;97084.14;109591;1251;60048;-69
2023/11/06 02:00:40;;;;;;;1.00;0.40;;;;;;;11.33;100.00;97085.66;109552;1250;62606;-69
2023/11/06 02:03:07;;;;;;;0.40;0.30;;;;;;;11.30;100.00;97088.47;109800;1252;59747;-70
2023/11/06 02:05:36;;;;;;;1.00;0.40;;;;;;;11.23;100.00;97096.98;109599;1250;59812;-70
2023/11/06 02:08:05;;;;;;;0.70;0.50;;;;;;;11.16;100.00;97106.16;109580;1251;68027;-69
2023/11/06 02:10:32;;;;;;;0.60;0.30;;;;;;;11.12;100.00;97116.58;109546;1251;60211;-70
2023/11/06 02:13:01;;;;;;;0.40;0.40;;;;;;;11.10;100.00;97128.72;109770;1249;64100;-69
2023/11/06 02:15:28;;;;;;;0.80;0.40;;;;;;;11.08;100.00;97122.67;109790;1251;59811;-70
2023/11/06 02:17:55;;;;;;;0.70;0.30;;;;;;;11.07;100.00;97127.52;109509;1251;60084;-69
2023/11/06 02:20:22;;;;;;;0.60;0.30;;;;;;;11.04;100.00;97132.66;109796;1251;66926;-69
2023/11/06 02:22:51;;;;;;;1.80;0.30;;;;;;;11.03;100.00;97141.77;109381;1251;60114;-70
2023/11/06 02:25:18;;;;;;;0.40;0.40;;;;;;;11.04;100.00;97152.73;109172;1254;62900;-70
2023/11/06 02:27:44;;;;;;;0.60;0.40;;;;;;;11.07;100.00;97164.17;109147;1254;59859;-70
2023/11/06 02:30:11;;;;;;;0.60;0.50;;;;;;;11.10;100.00;97164.97;109313;1254;59873;-70
2023/11/06 02:32:37;;;;;;;0.90;0.50;;;;;;;11.10;100.00;97174.67;109166;1254;66688;-70
2023/11/06 02:35:07;;;;;;;0.90;0.30;;;;;;;11.11;100.00;97186.48;109317;1254;59872;-70
2023/11/06 02:37:33;;;;;;;1.90;0.40;;;;;;;11.14;100.00;97189.91;109323;1258;64079;-70
2023/11/06 02:40:00;;;;;;;0.20;0.20;;;;;;;11.17;100.00;97197.52;109291;1254;59888;-70
2023/11/06 02:42:26;;;;;;;2.20;0.40;;;;;;;11.17;100.00;97204.04;109284;1254;59859;-70
2023/11/06 02:44:53;;;;;;;0.60;0.40;;;;;;;11.17;100.00;97209.55;109308;1254;60406;-69
2023/11/06 02:47:19;;;;;;;0.50;0.50;;;;;;;11.17;100.00;97216.98;109328;1254;60203;-70
2023/11/06 02:49:46;;;;;;;1.60;0.50;;;;;;;11.17;100.00;97228.20;109282;1254;60299;-70
2023/11/06 02:52:12;;;;;;;2.30;0.70;;;;;;;11.17;100.00;97238.71;109193;1254;59797;-70
2023/11/06 02:54:39;;;;;;;0.70;0.40;;;;;;;11.18;100.00;97244.65;109299;1254;59894;-70
2023/11/06 02:57:05;;;;;;;0.90;0.40;;;;;;;11.17;100.00;97246.27;109619;1250;59971;-70
2023/11/06 02:59:33;;;;;;;0.80;0.40;;;;;;;11.14;100.00;97257.83;109592;1250;59889;-69
2023/11/06 03:02:01;;;;;;;0.80;0.40;;;;;;;11.08;100.00;97267.48;109816;1250;64017;-69
2023/11/06 03:04:27;;;;;;;0.90;0.50;;;;;;;11.02;100.00;97273.02;109857;1250;59858;-69
2023/11/06 03:06:54;;;;;;;0.50;0.40;;;;;;;10.99;100.00;97281.31;109397;1251;59794;-68
2023/11/06 03:09:20;;;;;;;1.60;0.30;;;;;;;10.98;100.00;97281.37;109568;1251;59789;-70
2023/11/06 03:11:47;;;;;;;0.40;0.40;;;;;;;10.98;100.00;97294.59;109558;1251;59885;-69
2023/11/06 03:14:14;;;;;;;0.80;0.50;;;;;;;10.96;100.00;97297.41;109821;1251;65062;-69
2023/11/06 03:16:40;;;;;;;1.70;0.40;;;;;;;10.94;100.00;97300.77;109796;1250;59821;-69
2023/11/06 03:19:07;;;;;;;0.50;0.50;;;;;;;10.92;100.00;97303.08;109870;1250;60583;-70
2023/11/06 03:21:33;;;;;;;0.90;0.60;;;;;;;10.88;100.00;97309.73;109814;1252;59819;-70
2023/11/06 03:24:00;;;;;;;0.70;0.50;;;;;;;10.83;100.00;97315.73;109840;1250;60080;-69
2023/11/06 03:26:26;;;;;;;1.60;0.50;;;;;;;10.78;100.00;97319.95;109381;1254;59869;-70
2023/11/06 03:28:53;;;;;;;0.60;0.60;;;;;;;10.73;100.00;97328.76;109817;1249;60027;-69
2023/11/06 03:31:19;;;;;;;0.70;0.40;;;;;;;10.67;100.00;97332.44;109802;1253;59976;-70
2023/11/06 03:33:46;;;;;;;0.70;0.60;;;;;;;10.62;100.00;97336.17;109806;1251;60081;-70
2023/11/06 03:36:12;;;;;;;0.70;0.50;;;;;;;10.57;100.00;97338.75;109845;1251;59890;-70
2023/11/06 03:38:39;;;;;;;1.10;0.50;;;;;;;10.52;100.00;97346.34;109783;1251;59835;-70
2023/11/06 03:41:05;;;;;;;0.60;0.40;;;;;;;10.48;100.00;97354.20;109798;1251;60011;-69
2023/11/06 03:43:32;;;;;;;0.80;0.40;;;;;;;10.43;100.00;97357.98;109413;1250;59844;-69
2023/11/06 03:45:58;;;;;;;1.50;1.00;;;;;;;10.39;100.00;97359.65;109851;1251;59805;-70
2023/11/06 03:48:25;;;;;;;1.50;0.50;;;;;;;10.36;100.00;97368.27;109785;1250;60105;-70
2023/11/06 03:50:52;;;;;;;1.00;0.50;;;;;;;10.30;100.00;97371.95;109799;1251;64080;-69
2023/11/06 03:53:18;;;;;;;0.40;0.40;;;;;;;10.25;100.00;97380.59;109528;1251;59896;-69
2023/11/06 03:55:45;;;;;;;2.20;0.50;;;;;;;10.20;100.00;97379.45;109874;1249;59747;-69
2023/11/06 03:58:11;;;;;;;2.00;0.50;;;;;;;10.15;100.00;97385.00;109794;1251;66843;-69
2023/11/06 04:00:38;;;;;;;0.80;0.50;;;;;;;10.12;100.00;97391.52;109852;1251;59933;-69
2023/11/06 04:03:04;;;;;;;1.30;0.50;;;;;;;10.08;100.00;97402.82;109771;1253;64075;-69
2023/11/06 04:05:31;;;;;;;2.20;0.90;;;;;;;10.07;100.00;97413.07;109786;1249;60061;-69
2023/11/06 04:07:58;;;;;;;1.00;0.50;;;;;;;10.07;100.00;97418.34;109792;1251;59696;-70
2023/11/06 04:10:24;;;;;;;2.10;0.60;;;;;;;10.08;100.00;97424.29;109795;1249;66658;-69
2023/11/06 04:12:54;;;;;;;0.80;0.40;;;;;;;10.07;100.00;97421.76;109802;1251;59778;-69
2023/11/06 04:15:20;;;;;;;1.80;0.70;;;;;;;10.05;100.00;97426.40;109800;1251;62948;-69
2023/11/06 04:17:47;;;;;;;1.50;0.50;;;;;;;10.02;100.00;97430.02;109819;1249;60037;-70
2023/11/06 04:20:13;;;;;;;1.60;0.50;;;;;;;9.99;100.00;97435.84;109394;1250;59860;-69
2023/11/06 04:22:40;;;;;;;0.80;0.60;;;;;;;9.94;100.00;97435.52;109496;1251;66751;-70
2023/11/06 04:25:07;;;;;;;1.50;0.70;;;;;;;9.88;100.00;97444.03;109552;1249;59915;-71
2023/11/06 04:27:34;;;;;;;0.60;0.50;;;;;;;9.83;100.00;97444.83;109540;1250;62495;-70
2023/11/06 04:30:00;;;;;;;1.20;0.60;;;;;;;9.80;100.00;97449.71;109832;1249;59724;-70
2023/11/06 04:32:27;;;;;;;1.00;0.70;;;;;;;9.75;100.00;97453.91;109764;1250;60658;-70
2023/11/06 04:34:53;;;;;;;1.70;0.90;;;;;;;9.70;100.00;97454.75;109762;1251;59757;-71
2023/11/06 04:37:21;;;;;;;1.50;0.80;;;;;;;9.65;100.00;97459.19;109789;1251;59858;-70
2023/11/06 04:39:47;;;;;;;2.00;1.00;;;;;;;9.62;100.00;97460.52;109793;1250;65243;-70
2023/11/06 04:42:14;;;;;;;1.40;0.50;;;;;;;9.56;100.00;97461.92;109543;1251;59775;-70
2023/11/06 04:44:40;;;;;;;1.70;0.60;;;;;;;9.52;100.00;97466.41;109785;1253;59761;-70
2023/11/06 04:47:08;;;;;;;1.40;0.60;;;;;;;9.50;100.00;97468.28;109391;1249;59777;-70
2023/11/06 04:49:35;;;;;;;1.10;0.50;;;;;;;9.50;100.00;97471.50;109583;1250;59868;-70
2023/11/06 04:52:01;;;;;;;0.90;0.50;;;;;;;9.49;100.00;97474.11;109409;1251;60186;-71
2023/11/06 04:54:28;;;;;;;0.70;0.70;;;;;;;9.47;100.00;97480.66;109768;1249;60229;-70
2023/11/06 04:56:55;;;;;;;0.60;0.60;;;;;;;9.44;100.00;97487.09;109816;1251;59784;-70
2023/11/06 04:59:21;;;;;;;1.70;0.80;;;;;;;9.42;100.00;97486.38;109545;1251;60123;-69
2023/11/06 05:01:47;;;;;;;0.70;0.50;;;;;;;9.41;100.00;97488.98;109592;1250;60006;-69
2023/11/06 05:04:16;;;;;;;1.30;0.60;;;;;;;9.39;100.00;97492.70;109749;1251;59830;-69
2023/11/06 05:06:43;;;;;;;1.00;0.70;;;;;;;9.36;100.00;97491.20;109744;1250;60013;-69
2023/11/06 05:09:10;;;;;;;1.50;0.50;;;;;;;9.32;100.00;97492.35;109770;1251;59972;-70
2023/11/06 05:11:37;;;;;;;0.90;0.60;;;;;;;9.30;100.00;97495.55;109775;1250;68128;-69
2023/11/06 05:14:03;;;;;;;0.80;0.60;;;;;;;9.30;100.00;97495.73;109267;1251;59875;-69
2023/11/06 05:16:30;;;;;;;0.50;0.50;;;;;;;9.32;100.00;97498.42;109796;1250;62471;-69
2023/11/06 05:18:56;;;;;;;0.70;0.70;;;;;;;9.31;100.00;97501.73;109355;1250;59763;-69
2023/11/06 05:21:25;;;;;;;0.90;0.60;;;;;;;9.28;100.00;97502.99;109802;1250;60019;-69
2023/11/06 05:23:53;;;;;;;1.90;1.30;;;;;;;9.29;100.00;97503.86;109542;1250;66846;-69
2023/11/06 05:26:23;;;;;;;1.30;0.90;;;;;;;9.29;100.00;97508.06;109829;1250;60682;-69
2023/11/06 05:28:49;;;;;;;3.30;1.50;;;;;;;9.32;100.00;97508.56;109422;1251;62890;-69
2023/11/06 05:31:16;;;;;;;5.90;1.60;;;;;;;9.33;100.00;97509.88;109763;1251;59775;-69
2023/11/06 05:33:43;;;;;;;4.40;1.50;;;;;;;9.35;100.00;97518.90;109794;1251;59659;-69
2023/11/06 05:36:13;;;;;;;2.10;1.60;;;;;;;9.35;100.00;97523.15;109817;1250;66801;-70
2023/11/06 05:38:39;;;;;;;3.20;1.20;;;;;;;9.34;100.00;97533.90;109587;1251;61016;-68
2023/11/06 05:41:09;;;;;;;1.10;0.90;;;;;;;9.33;100.00;97533.77;109806;1249;65199;-69
2023/11/06 05:43:36;;;;;;;2.10;1.00;;;;;;;9.35;100.00;97531.30;109558;1251;60341;-69
2023/11/06 05:46:05;;;;;;;2.80;1.20;;;;;;;9.40;100.00;97536.52;109831;1249;59765;-69
2023/11/06 05:48:32;;;;;;;1.30;1.10;;;;;;;9.43;100.00;97544.11;109545;1251;65600;-69
2023/11/06 05:50:59;;;;;;;3.10;1.40;;;;;;;9.41;100.00;97554.67;109447;1249;60232;-69
2023/11/06 05:53:26;;;;;;;2.50;0.90;;;;;;;9.41;100.00;97558.63;109761;1249;65245;-68
2023/11/06 05:55:52;;;;;;;1.60;0.90;;;;;;;9.45;100.00;97562.35;109529;1251;59765;-69
2023/11/06 05:58:19;;;;;;;2.70;1.20;;;;;;;9.49;100.00;97568.38;109768;1251;59769;-70
2023/11/06 06:00:45;;;;;;;0.90;0.60;;;;;;;9.50;100.00;97571.83;109753;1250;59768;-69
2023/11/06 06:03:14;;;;;;;2.10;0.90;;;;;;;9.51;100.00;97576.77;109827;1249;60086;-69
2023/11/06 06:05:42;;;;;;;2.70;1.10;;;;;;;9.51;100.00;97584.91;109806;1249;65367;-68
2023/11/06 06:08:12;;;;;;;4.00;1.00;;;;;;;9.52;100.00;97591.58;109757;1251;59743;-69
2023/11/06 06:10:39;;;;;;;1.60;0.90;;;;;;;9.52;100.00;97594.19;109571;1249;59898;-69
2023/11/06 06:13:06;;;;;;;2.00;1.10;;;;;;;9.57;100.00;97602.78;109569;1250;67970;-69
2023/11/06 06:15:33;;;;;;;1.40;0.90;;;;;;;9.63;100.00;97607.98;109795;1249;59749;-69
2023/11/06 06:17:59;;;;;;;1.90;1.10;;;;;;;9.67;100.00;97609.41;109744;1250;64155;-69
2023/11/06 06:20:26;;;;;;;2.10;1.20;;;;;;;9.73;100.00;97613.38;109628;1249;60059;-69
2023/11/06 06:22:53;;;;;;;2.50;1.40;;;;;;;9.82;100.00;97618.09;109799;1251;59690;-70
2023/11/06 06:25:20;;;;;;;2.90;1.70;;;;;;;9.94;100.00;97621.67;109777;1250;67703;-70
2023/11/06 06:27:46;;;;;;;2.30;1.10;;;;;;;10.03;100.00;97624.09;109772;1250;60133;-70
2023/11/06 06:30:14;;;;;;;2.80;1.20;;;;;;;10.11;100.00;97629.60;109777;1250;63856;-70
2023/11/06 06:32:42;;;;;;;3.40;1.50;;;;;;;10.19;100.00;97627.30;109778;1250;59786;-70
2023/11/06 06:35:09;;;;;;;3.40;1.40;;;;;;;10.25;100.00;97635.11;109599;1250;60151;-69
2023/11/06 06:37:36;;;;;;;3.00;1.10;;;;;;;10.30;100.00;97636.46;109554;1250;66825;-70
2023/11/06 06:40:07;;;;;;;1.90;1.10;;;;;;;10.34;100.00;97643.52;109413;1251;59921;-70
2023/11/06 06:42:34;;;;;;;3.00;0.90;;;;;;;10.39;100.00;97649.14;109592;1250;65093;-69
2023/11/06 06:45:01;;;;;;;2.70;1.30;;;;;;;10.44;100.00;97654.42;109737;1250;59794;-70
2023/11/06 06:47:27;;;;;;;2.60;1.10;;;;;;;10.48;100.00;97659.41;109769;1249;60168;-70
2023/11/06 06:49:54;;;;;;;2.90;1.20;;;;;;;10.51;100.00;97660.55;109764;1249;66536;-70
2023/11/06 06:52:21;;;;;;;3.30;1.50;;;;;;;10.53;100.00;97662.14;109601;1250;60350;-70
2023/11/06 06:54:48;;;;;;;3.40;1.70;;;;;;;10.55;100.00;97667.29;109776;1251;63949;-70
2023/11/06 06:57:14;;;;;;;3.40;1.70;;;;;;;10.57;100.00;97671.02;109741;1249;59756;-69
2023/11/06 06:59:41;;;;;;;3.40;1.70;;;;;;;10.60;100.00;97675.02;109802;1249;59665;-69
2023/11/06 07:02:08;;;;;;;2.50;1.60;;;;;;;10.63;100.00;97675.63;109739;1249;65340;-72
2023/11/06 07:04:37;;;;;;;4.90;1.70;;;;;;;10.69;100.00;97681.33;109663;1250;67611;-69
2023/11/06 07:07:03;;;;;;;6.80;2.20;;;;;;;10.74;100.00;97684.21;109639;1250;64044;-70
2023/11/06 07:09:31;;;;;;;3.90;1.80;;;;;;;10.80;100.00;97687.79;109379;1250;60001;-69
2023/11/06 07:11:58;;;;;;;2.80;1.30;;;;;;;10.87;100.00;97693.61;109672;1249;60632;-70
2023/11/06 07:14:27;;;;;;;2.90;1.50;;;;;;;10.90;100.00;97691.73;109279;1255;66537;-76
2023/11/06 07:16:53;;;;;;;1.80;0.90;;;;;;;10.93;100.00;97699.95;109048;1257;60708;-72
2023/11/06 07:19:20;;;;;;;3.60;1.50;;;;;;;10.95;100.00;97705.34;109128;1256;60361;-72
2023/11/06 07:21:46;;;;;;;1.40;1.10;;;;;;;10.97;100.00;97705.00;109211;1256;60196;-75
2023/11/06 07:24:13;;;;;;;1.70;0.90;;;;;;;11.00;100.00;97708.14;109239;1256;60230;-73
2023/11/06 07:26:40;;;;;;;2.60;0.90;;;;;;;11.03;100.00;97711.55;109205;1256;66867;-72
2023/11/06 07:29:06;;;;;;;1.50;1.00;;;;;;;11.07;100.00;97714.73;109210;1257;60053;-71
2023/11/06 07:31:33;;;;;;;3.70;1.10;;;;;;;11.11;100.00;97720.11;109117;1256;63712;-73
2023/11/06 07:33:59;;;;;;;1.40;0.90;;;;;;;11.14;100.00;97720.67;109210;1256;60040;-75
2023/11/06 07:36:27;;;;;;;3.60;1.00;;;;;;;11.17;100.00;97726.48;109261;1255;59939;-71
2023/11/06 07:38:54;;;;;;;2.20;0.90;;;;;;;11.21;100.00;97726.97;109203;1255;66875;-77
2023/11/06 07:41:20;;;;;;;2.60;0.70;;;;;;;11.28;100.00;97724.40;109087;1256;59935;-78
2023/11/06 07:43:47;;;;;;;1.10;0.70;;;;;;;11.36;100.00;97724.23;108959;1256;64477;-71
2023/11/06 07:46:18;;;;;;;1.70;0.70;;;;;;;11.43;100.00;97729.66;109408;1251;59787;-71
2023/11/06 07:48:46;;;;;;;3.20;0.70;;;;;;;11.51;100.00;97730.65;109448;1254;60061;-70
2023/11/06 07:51:13;;;;;;;2.50;0.70;;;;;;;11.60;100.00;97731.61;109467;1251;65669;-70
2023/11/06 07:53:40;;;;;;;3.60;0.80;;;;;;;11.68;100.00;97739.08;109324;1251;59907;-70
2023/11/06 07:56:09;;;;;;;4.10;0.60;;;;;;;11.74;100.00;97747.96;109607;1249;62514;-70
2023/11/06 07:58:35;;;;;;;1.40;0.90;;;;;;;11.81;100.00;97752.36;109492;1249;60722;-76
2023/11/06 08:01:02;;;;;;;3.20;1.00;;;;;;;11.87;100.00;97760.03;109517;1249;59642;-77
2023/11/06 08:03:30;;;;;;;2.50;0.80;;;;;;;11.93;100.00;97762.63;109627;1250;66930;-70
2023/11/06 08:05:56;;;;;;;1.20;0.50;;;;;;;11.97;100.00;97767.23;109676;1250;59863;-70
2023/11/06 08:08:23;;;;;;;2.60;0.80;;;;;;;11.99;100.00;97770.43;109649;1250;59817;-71
2023/11/06 08:10:49;;;;;;;1.30;0.50;;;;;;;12.03;100.00;97777.42;109604;1250;59782;-72
2023/11/06 08:13:17;;;;;;;2.70;0.60;;;;;;;12.07;100.00;97778.08;109674;1249;59809;-70
2023/11/06 08:15:43;;;;;;;1.90;0.80;;;;;;;12.12;100.00;97786.59;109527;1249;75584;-70
2023/11/06 08:18:10;;;;;;;2.90;0.60;;;;;;;12.16;100.00;97789.39;109715;1249;59762;-70
2023/11/06 08:20:36;;;;;;;4.10;1.10;;;;;;;12.20;100.00;97790.04;109774;1250;63786;-70
2023/11/06 08:23:03;;;;;;;5.20;3.10;;;;;;;12.25;100.00;97796.73;109494;1249;59791;-76
2023/11/06 08:25:31;;;;;;;1.40;0.70;;;;;;;12.30;100.00;97799.08;109714;1250;59746;-80
2023/11/06 08:27:58;;;;;;;1.90;0.60;;;;;;;12.36;100.00;97806.75;109779;1249;67007;-74
2023/11/06 08:30:25;;;;;;;4.00;1.10;;;;;;;12.43;100.00;97810.53;109699;1251;59826;-75
2023/11/06 08:32:51;;;;;;;2.40;0.80;;;;;;;12.53;100.00;97823.30;109730;1250;62503;-73
2023/11/06 08:35:18;;;;;;;1.70;0.60;;;;;;;12.60;100.00;97825.30;109737;1249;59749;-69
2023/11/06 08:37:46;;;;;;;2.60;0.80;;;;;;;12.65;100.00;97826.45;109536;1249;59876;-68
2023/11/06 08:40:17;;;;;;;3.00;0.90;;;;;;;12.68;100.00;97822.44;109822;1249;65406;-69
2023/11/06 08:42:44;;;;;;;1.60;0.90;;;;;;;12.64;100.00;97832.97;109784;1249;59852;-69
2023/11/06 08:45:11;;;;;;;1.30;0.50;;;;;;;12.56;100.00;97839.83;109756;1249;63886;-69
2023/11/06 08:47:39;;;;;;;2.20;0.50;;;;;;;12.49;100.00;97840.80;109777;1250;60094;-69
2023/11/06 08:50:06;;;;;;;0.60;0.30;;;;;;;12.50;100.00;97847.84;109776;1249;59785;-69
2023/11/06 08:52:33;;;;;;;0.80;0.70;;;;;;;12.56;100.00;97849.78;109765;1249;66860;-69
2023/11/06 08:54:59;;;;;;;1.40;0.50;;;;;;;12.57;100.00;97855.38;109742;1249;59884;-69
2023/11/06 08:57:26;;;;;;;1.20;0.70;;;;;;;12.58;100.00;97865.64;109811;1250;59904;-69
2023/11/06 08:59:53;;;;;;;3.40;0.70;;;;;;;12.56;100.00;97870.42;109733;1250;59777;-69
2023/11/06 09:02:20;;;;;;;2.10;0.70;;;;;;;12.58;100.00;97874.01;109788;1250;59875;-69
2023/11/06 09:04:47;;;;;;;0.80;0.60;;;;;;;12.67;100.00;97876.52;109778;1250;66815;-69
2023/11/06 09:07:14;;;;;;;1.60;0.60;;;;;;;12.82;100.00;97883.39;109771;1250;59785;-69
2023/11/06 09:09:41;;;;;;;2.00;1.20;;;;;;;12.94;100.00;97889.66;109665;1249;121831;-69
2023/11/06 09:12:08;;;;;;;1.10;0.60;;;;;;;13.00;100.00;97891.08;109736;1250;60060;-69
2023/11/06 09:14:35;;;;;;;2.70;0.70;;;;;;;13.04;100.00;97893.80;109794;1249;59765;-69
2023/11/06 09:17:03;;;;;;;2.10;0.60;;;;;;;13.11;100.00;97893.23;109733;1250;67642;-69
2023/11/06 09:19:29;;;;;;;1.40;0.70;;;;;;;13.17;100.00;97890.48;109751;1250;60544;-69
2023/11/06 09:21:56;;;;;;;2.10;0.60;;;;;;;13.21;100.00;97891.94;109771;1249;64079;-68
2023/11/06 09:24:22;;;;;;;1.30;0.60;;;;;;;13.24;100.00;97894.76;109762;1249;60100;-69
2023/11/06 09:26:49;;;;;;;3.40;1.00;;;;;;;13.22;100.00;97895.47;109788;1249;59916;-69
2023/11/06 09:29:15;;;;;;;1.60;0.60;;;;;;;13.21;100.00;97916.28;109824;1249;59908;-69
2023/11/06 09:31:42;;;;;;;3.10;0.70;;;;;;;13.20;100.00;97923.60;109806;1250;59973;-69
2023/11/06 09:34:08;;;;;;;2.70;0.60;;;;;;;13.20;100.00;97919.69;109760;1250;59862;-69
2023/11/06 09:36:35;;;;;;;2.10;0.80;;;;;;;13.18;100.00;97927.33;109765;1250;59942;-69
2023/11/06 09:39:02;;;;;;;1.30;0.60;;;;;;;13.16;100.00;97925.19;109770;1249;59781;-69
2023/11/06 09:41:28;;;;;;;2.60;0.50;;;;;;;13.19;100.00;97920.00;109809;1250;65885;-69
2023/11/06 09:43:55;;;;;;;3.20;0.70;;;;;;;13.21;100.00;97923.70;109775;1249;60317;-69
2023/11/06 09:46:23;;;;;;;1.80;0.70;;;;;;;13.24;100.00;97924.67;109812;1249;62851;-69
2023/11/06 09:48:50;;;;;;;1.60;0.60;;;;;;;13.29;100.00;97917.96;109753;1250;59756;-69
2023/11/06 09:51:17;;;;;;;1.50;0.40;;;;;;;13.38;100.00;97912.11;109501;1250;60091;-69
2023/11/06 09:53:45;;;;;;;1.70;0.60;;;;;;;13.42;100.00;97909.20;109770;1249;67650;-69
2023/11/06 09:56:12;;;;;;;2.70;0.80;;;;;;;13.44;100.00;97909.02;109786;1250;59896;-69
2023/11/06 09:58:39;;;;;;;2.50;0.80;;;;;;;13.45;100.00;97908.39;109558;1250;63959;-69
2023/11/06 10:01:07;;;;;;;2.30;1.00;;;;;;;13.45;100.00;97905.90;109565;1249;60070;-69
2023/11/06 10:03:37;;;;;;;3.00;1.20;;;;;;;13.43;100.00;97910.74;109584;1249;59756;-68
2023/11/06 10:06:04;;;;;;;;;;;;;;;13.43;100.00;97908.06;109587;1251;66550;-68
2023/11/06 10:08:32;;;;;;;4.10;0.70;;;;;;;13.38;100.00;97913.36;109821;1250;59934;-69
2023/11/06 10:11:02;;;;;;;3.10;0.50;;;;;;;13.31;100.00;97917.09;109522;1251;62928;-68
2023/11/06 10:13:28;;;;;;;1.90;0.70;;;;;;;13.24;100.00;97915.42;109800;1249;59766;-69
2023/11/06 10:15:55;;;;;;;2.20;0.90;;;;;;;13.20;100.00;97919.33;109833;1250;59710;-69
2023/11/06 10:18:26;;;;;;;2.30;0.60;;;;;;;13.20;100.00;97924.16;109786;1250;67048;-69
2023/11/06 10:20:54;;;;;;;2.20;0.70;;;;;;;13.22;100.00;97923.11;109835;1249;60752;-69
2023/11/06 10:23:27;;;;;;;2.80;0.60;;;;;;;13.34;100.00;97922.50;109534;1249;62861;-69
2023/11/06 10:25:54;;;;;;;2.20;0.60;;;;;;;13.54;100.00;97920.77;109538;1250;59800;-69
2023/11/06 10:28:23;;;;;;;1.30;0.60;;;;;;;13.62;100.00;97926.56;109808;1250;60001;-68
2023/11/06 10:30:53;;;;;;;4.10;0.90;;;;;;;13.67;100.00;97925.78;109440;1249;65304;-69
2023/11/06 10:33:23;;;;;;;1.80;0.90;;;;;;;13.70;100.00;97930.25;109779;1249;59805;-68
2023/11/06 10:35:49;;;;;;;1.60;0.60;;;;;;;13.77;100.00;97936.02;109796;1249;63765;-69
2023/11/06 10:38:35;;;;;;;2.20;0.90;;;;;;;13.83;100.00;97934.39;109780;1250;60021;-69
2023/11/06 10:41:24;;;;;;;3.40;0.70;;;;;;;13.90;100.00;97938.48;109815;1249;59788;-69
2023/11/06 10:44:00;;;;;;;3.80;0.70;;;;;;;14.03;100.00;97940.08;109801;1250;65676;-69
2023/11/06 10:46:31;;;;;;;1.60;0.60;;;;;;;14.16;100.00;97939.52;109821;1250;60095;-69
2023/11/06 10:49:16;;;;;;;1.60;0.80;;;;;;;14.19;100.00;97938.00;109807;1249;64458;-69
2023/11/06 10:51:47;;;;;;;2.80;0.70;;;;;;;14.21;100.00;97937.59;109771;1253;59995;-69
2023/11/06 10:54:15;;;;;;;2.10;0.80;;;;;;;14.33;100.00;97943.94;109818;1249;59661;-68
2023/11/06 10:56:42;;;;;;;1.90;0.70;;;;;;;14.35;100.00;97952.14;109796;1249;68115;-69
2023/11/06 10:59:10;;;;;;;3.20;0.80;;;;;;;14.32;100.00;97951.70;109815;1250;61790;-68
2023/11/06 11:01:38;;;;;;;1.30;0.30;;;;;;;14.23;100.00;97956.27;109378;1250;65126;-68
2023/11/06 11:04:08;;;;;;;1.10;0.50;;;;;;;14.25;100.00;97961.85;109800;1249;59900;-69
2023/11/06 11:06:35;;;;;;;2.00;1.20;;;;;;;14.21;100.00;97964.35;109716;1249;59923;-69
2023/11/06 11:09:03;;;;;;;2.80;0.60;;;;;;;14.32;100.00;97965.06;109780;1250;65614;-70
2023/11/06 11:11:30;;;;;;;2.10;0.80;;;;;;;14.57;100.00;97967.14;109551;1251;60293;-69
2023/11/06 11:13:56;;;;;;;1.00;0.60;;;;;;;14.77;100.00;97968.70;109829;1249;59899;-69
2023/11/06 11:17:06;;;;;;;2.40;0.60;;;;;;;14.95;100.00;97969.93;109785;1249;60098;-69
2023/11/06 11:19:35;;;;;;;2.90;1.10;;;;;;;14.88;100.00;97971.52;109009;1257;60029;-69